Time;durP1;ratioP1;P1;durP2;ratioP2;P2;SDS_P1;SDS_P2;PMS_P1;PMS_P2;Temp;Humidity;BMP_temperature;BMP_pressure;BME280_temperature;BME280_humidity;BME280_pressure;Samples;Min_cycle;Max_cycle;Signal;HPM_P1;HPM_P2
2021/04/28 00:00:22;;;;;;;1.40;0.65;;;;;;;4.43;62.78;101370.81;4836716;29;20052;-84
2021/04/28 00:02:48;;;;;;;2.15;0.70;;;;;;;4.23;63.41;101340.72;4831902;29;20075;-84
2021/04/28 00:05:15;;;;;;;1.38;0.70;;;;;;;3.99;62.62;101301.25;4813899;29;20019;-84
2021/04/28 00:07:40;;;;;;;1.48;0.57;;;;;;;4.32;62.69;101358.50;4803078;29;20022;-81
2021/04/28 00:10:09;;;;;;;2.08;0.52;;;;;;;4.36;63.77;101365.22;4828385;29;20015;-82
2021/04/28 00:12:36;;;;;;;3.17;0.40;;;;;;;4.34;63.76;101366.34;4803650;29;20030;-82
2021/04/28 00:15:07;;;;;;;2.47;0.52;;;;;;;4.18;63.60;101341.16;4825538;29;20039;-81
2021/04/28 00:17:33;;;;;;;3.15;0.93;;;;;;;4.30;63.29;101363.13;4807749;29;20030;-81
2021/04/28 00:19:59;;;;;;;1.48;0.50;;;;;;;4.25;63.39;101365.41;4830245;29;20051;-82
2021/04/28 00:22:25;;;;;;;3.05;0.50;;;;;;;4.20;63.90;101364.97;4826053;29;20109;-83
2021/04/28 00:24:51;;;;;;;2.17;0.60;;;;;;;4.13;64.24;101355.88;4828835;29;20031;-82
2021/04/28 00:27:16;;;;;;;1.23;0.60;;;;;;;4.02;64.01;101356.88;4828645;29;20023;-82
2021/04/28 00:29:42;;;;;;;4.50;0.75;;;;;;;3.63;64.55;101306.34;4845218;29;20054;-82
2021/04/28 00:32:07;;;;;;;1.33;0.70;;;;;;;3.80;64.14;101343.88;4845187;29;20038;-81
2021/04/28 00:34:33;;;;;;;1.75;0.73;;;;;;;3.79;64.61;101350.19;4828713;29;20034;-82
2021/04/28 00:36:58;;;;;;;3.03;0.50;;;;;;;3.72;64.53;101347.25;4844973;29;20023;-82
2021/04/28 00:39:24;;;;;;;1.83;0.60;;;;;;;3.56;64.95;101323.88;4840953;29;20026;-82
2021/04/28 00:41:50;;;;;;;1.35;0.40;;;;;;;3.63;64.70;101346.28;4828459;29;20072;-82
2021/04/28 00:44:16;;;;;;;2.03;0.55;;;;;;;3.60;65.15;101348.38;4828330;29;20045;-82
2021/04/28 00:46:42;;;;;;;1.50;0.60;;;;;;;3.28;65.11;101313.09;4827686;29;20026;-82
2021/04/28 00:49:08;;;;;;;1.25;0.65;;;;;;;3.33;65.30;101325.13;4842837;29;20094;-82
2021/04/28 00:51:34;;;;;;;1.67;0.50;;;;;;;3.44;65.13;101340.94;4844186;29;20034;-82
2021/04/28 00:53:59;;;;;;;2.50;0.60;;;;;;;3.37;65.24;101332.69;4827966;29;20040;-82
2021/04/28 00:56:25;;;;;;;1.75;0.60;;;;;;;3.36;65.75;101328.34;4828043;29;20110;-81
2021/04/28 00:58:51;;;;;;;2.10;1.00;;;;;;;3.37;65.43;101330.03;4843958;29;20034;-83
2021/04/28 01:01:17;;;;;;;1.98;0.57;;;;;;;3.39;65.31;101332.56;4831363;29;20018;-82
2021/04/28 01:03:47;;;;;;;1.60;0.68;;;;;;;3.23;65.60;101319.81;4834742;29;20090;-82
2021/04/28 01:06:12;;;;;;;1.67;0.50;;;;;;;3.11;65.80;101305.78;4831699;29;20102;-83
2021/04/28 01:08:40;;;;;;;3.63;0.70;;;;;;;3.10;65.80;101320.06;4832010;29;20049;-82
2021/04/28 01:11:06;;;;;;;1.95;0.63;;;;;;;3.00;66.16;101316.56;4831521;29;20108;-82
2021/04/28 01:13:33;;;;;;;1.08;0.50;;;;;;;3.08;66.44;101329.16;4801704;29;20038;-82
2021/04/28 01:15:58;;;;;;;2.85;0.50;;;;;;;2.92;66.92;101303.97;4824471;29;20049;-82
2021/04/28 01:18:24;;;;;;;1.42;0.60;;;;;;;2.97;66.72;101312.34;4829764;29;20055;-82
2021/04/28 01:20:50;;;;;;;4.10;0.60;;;;;;;2.86;67.08;101303.66;4840845;29;20058;-82
2021/04/28 01:23:16;;;;;;;1.50;0.70;;;;;;;2.88;67.26;101312.31;4847129;29;20054;-82
2021/04/28 01:25:44;;;;;;;1.35;0.47;;;;;;;2.85;67.28;101310.81;4847049;29;20030;-82
2021/04/28 01:28:12;;;;;;;1.52;0.55;;;;;;;2.77;67.54;101306.16;4842298;29;20112;-82
2021/04/28 01:30:44;;;;;;;2.70;0.68;;;;;;;2.61;68.10;101284.56;4842612;29;20026;-83
2021/04/28 01:33:15;;;;;;;2.15;0.50;;;;;;;2.66;67.85;101302.78;4832058;29;20027;-82
2021/04/28 01:35:43;;;;;;;2.40;0.60;;;;;;;2.60;68.48;101288.22;4844705;29;20042;-82
2021/04/28 01:38:09;;;;;;;2.08;0.60;;;;;;;2.63;68.07;101287.09;4847793;29;20094;-82
2021/04/28 01:40:38;;;;;;;2.05;0.95;;;;;;;2.53;68.45;101269.31;4847896;29;20061;-82
2021/04/28 01:43:04;;;;;;;1.23;0.50;;;;;;;2.37;68.24;101252.22;4831686;29;20027;-82
2021/04/28 01:45:33;;;;;;;1.58;0.65;;;;;;;2.50;68.40;101266.09;4819631;29;20023;-82
2021/04/28 01:48:05;;;;;;;1.08;0.60;;;;;;;2.56;68.59;101266.38;4829654;29;20014;-82
2021/04/28 01:50:31;;;;;;;0.55;0.45;;;;;;;2.70;68.71;101291.72;4836058;29;20027;-82
2021/04/28 01:52:57;;;;;;;3.50;0.80;;;;;;;2.62;68.70;101283.59;4816595;29;20031;-82
2021/04/28 01:55:23;;;;;;;1.08;0.55;;;;;;;2.59;68.77;101287.38;4846710;29;20037;-81
2021/04/28 01:57:49;;;;;;;3.72;0.80;;;;;;;2.57;69.41;101277.84;4815484;29;20038;-81
2021/04/28 02:00:18;;;;;;;1.90;0.60;;;;;;;2.38;69.54;101240.59;4844028;29;20037;-81
2021/04/28 02:02:44;;;;;;;3.30;0.68;;;;;;;2.47;69.22;101263.69;4844143;29;20026;-81
2021/04/28 02:05:11;;;;;;;3.05;0.60;;;;;;;2.28;69.54;101230.78;4841396;29;20030;-82
2021/04/28 02:07:36;;;;;;;0.90;0.60;;;;;;;2.32;69.64;101242.84;4843559;29;20069;-82
2021/04/28 02:10:05;;;;;;;1.70;0.70;;;;;;;2.43;69.70;101270.25;4842209;29;20030;-81
2021/04/28 02:12:31;;;;;;;3.20;0.55;;;;;;;2.30;69.66;101260.72;4826795;29;20102;-82
2021/04/28 02:14:57;;;;;;;3.63;0.70;;;;;;;2.30;69.98;101273.16;4833374;29;20065;-82
2021/04/28 02:17:24;;;;;;;2.08;0.70;;;;;;;2.19;70.04;101252.84;4857400;29;20035;-81
2021/04/28 02:19:50;;;;;;;2.10;0.65;;;;;;;2.27;69.89;101262.78;4834490;29;20046;-82
2021/04/28 02:22:16;;;;;;;2.78;0.80;;;;;;;2.33;70.30;101267.56;4843000;29;20049;-81
2021/04/28 02:24:41;;;;;;;1.25;0.60;;;;;;;2.28;70.21;101269.78;4843238;29;20034;-81
2021/04/28 02:27:07;;;;;;;3.35;0.60;;;;;;;2.20;70.47;101265.16;4814065;29;20030;-82
2021/04/28 02:29:33;;;;;;;1.58;0.50;;;;;;;2.01;70.53;101239.34;4828223;29;20034;-82
2021/04/28 02:32:00;;;;;;;3.15;0.60;;;;;;;2.13;70.87;101258.69;4842398;29;20022;-82
2021/04/28 02:34:26;;;;;;;1.58;0.52;;;;;;;2.07;70.84;101254.75;4800926;29;20107;-81
2021/04/28 02:36:55;;;;;;;1.25;0.63;;;;;;;1.99;70.96;101251.09;4825166;29;20034;-81
2021/04/28 02:39:27;;;;;;;3.45;0.70;;;;;;;1.77;71.56;101223.72;4822763;29;20027;-80
2021/04/28 02:41:55;;;;;;;2.60;0.52;;;;;;;1.94;71.43;101254.13;4792627;29;20069;-82
2021/04/28 02:44:24;;;;;;;1.80;0.70;;;;;;;1.96;71.50;101260.16;4798989;29;20035;-81
2021/04/28 02:46:50;;;;;;;0.80;0.63;;;;;;;1.84;72.11;101234.66;4838455;29;20175;-80
2021/04/28 02:49:17;;;;;;;2.53;0.70;;;;;;;1.84;71.85;101239.97;4821450;29;20045;-81
2021/04/28 02:51:44;;;;;;;1.65;0.68;;;;;;;1.67;71.96;101217.53;4804920;29;20046;-81
2021/04/28 02:54:11;;;;;;;1.80;0.77;;;;;;;1.58;71.90;101213.00;4819575;29;20122;-81
2021/04/28 02:56:39;;;;;;;2.15;1.05;;;;;;;1.72;72.38;101247.16;4834437;29;20027;-82
2021/04/28 02:59:06;;;;;;;1.85;0.70;;;;;;;1.70;72.43;101248.28;4840372;29;20062;-81
2021/04/28 03:01:34;;;;;;;3.28;0.60;;;;;;;1.64;72.85;101246.97;4824233;29;20045;-81
2021/04/28 03:04:01;;;;;;;2.25;0.70;;;;;;;1.32;73.02;101204.59;4839308;29;20444;-82
2021/04/28 03:06:28;;;;;;;0.98;0.70;;;;;;;1.49;72.99;101235.00;4824069;29;20140;-82
2021/04/28 03:08:53;;;;;;;1.65;0.70;;;;;;;1.49;73.12;101242.97;4837666;29;20113;-82
2021/04/28 03:11:22;;;;;;;1.65;0.85;;;;;;;1.33;73.25;101228.34;4823393;29;20041;-80
2021/04/28 03:13:48;;;;;;;1.17;0.60;;;;;;;1.38;73.08;101238.56;4822498;29;20030;-82
2021/04/28 03:16:14;;;;;;;1.90;0.68;;;;;;;1.30;73.32;101246.34;4840310;29;20069;-82
2021/04/28 03:18:40;;;;;;;3.15;0.80;;;;;;;1.01;73.63;101207.19;4837154;29;20062;-81
2021/04/28 03:21:08;;;;;;;0.98;0.60;;;;;;;1.11;73.76;101239.06;4838887;29;20111;-82
2021/04/28 03:23:34;;;;;;;1.10;0.60;;;;;;;1.04;73.54;101237.91;4823563;29;20038;-81
2021/04/28 03:26:00;;;;;;;3.55;0.75;;;;;;;0.97;73.38;101252.63;4839726;29;20034;-81
2021/04/28 03:28:27;;;;;;;3.25;0.80;;;;;;;0.73;73.76;101256.31;4791149;29;20037;-82
2021/04/28 03:30:52;;;;;;;2.15;0.82;;;;;;;0.55;73.74;101234.78;4807221;29;20035;-81
2021/04/28 03:33:24;;;;;;;1.70;0.70;;;;;;;0.50;73.82;101241.41;4792988;29;20031;-81
2021/04/28 03:35:50;;;;;;;1.90;0.70;;;;;;;0.42;74.11;101239.38;4838914;29;20042;-81
2021/04/28 03:38:16;;;;;;;3.20;0.88;;;;;;;0.45;73.66;101239.13;4836447;29;20045;-81
2021/04/28 03:40:43;;;;;;;2.15;0.90;;;;;;;0.45;73.99;101234.66;4847129;29;20026;-81
2021/04/28 03:43:08;;;;;;;3.88;0.88;;;;;;;0.62;73.71;101248.38;4837265;29;20050;-81
2021/04/28 03:45:34;;;;;;;2.33;1.00;;;;;;;0.63;73.97;101242.97;4835567;29;20529;-82
2021/04/28 03:48:00;;;;;;;1.60;0.90;;;;;;;0.53;73.91;101225.25;4840033;29;20042;-82
2021/04/28 03:50:26;;;;;;;1.20;0.70;;;;;;;0.67;74.09;101238.25;4807386;29;20031;-81
2021/04/28 03:52:51;;;;;;;4.18;0.90;;;;;;;0.75;74.00;101230.50;4803911;29;20114;-81
2021/04/28 03:55:17;;;;;;;2.83;0.95;;;;;;;0.84;73.96;101236.88;4820874;29;20042;-81
2021/04/28 03:57:44;;;;;;;6.68;1.40;;;;;;;0.87;74.04;101228.69;4809741;29;20054;-81
2021/04/28 04:00:10;;;;;;;1.70;0.80;;;;;;;0.71;73.66;101189.34;4817692;29;20030;-80
2021/04/28 04:02:36;;;;;;;4.03;0.98;;;;;;;0.87;73.27;101216.28;4801189;29;20034;-81
2021/04/28 04:05:04;;;;;;;1.50;0.80;;;;;;;1.04;73.29;101211.41;4804794;29;20035;-82
2021/04/28 04:07:29;;;;;;;4.72;0.75;;;;;;;1.15;72.78;101208.69;4805248;29;20026;-81
2021/04/28 04:09:54;;;;;;;2.05;0.85;;;;;;;0.39;72.92;101078.97;4819705;29;20476;-81
2021/04/28 04:12:20;;;;;;;5.10;0.80;;;;;;;1.26;72.67;101207.78;4823014;29;20106;-82
2021/04/28 04:14:45;;;;;;;3.15;0.70;;;;;;;1.40;72.42;101229.53;4830686;29;20030;-83
2021/04/28 04:17:11;;;;;;;2.80;0.85;;;;;;;1.44;72.19;101213.34;4832065;29;20030;-83
2021/04/28 04:19:37;;;;;;;5.85;0.85;;;;;;;1.50;72.04;101215.50;4829267;29;20038;-84
2021/04/28 04:22:02;;;;;;;3.92;0.88;;;;;;;1.62;71.88;101195.84;4816864;29;20026;-83
2021/04/28 04:24:28;;;;;;;2.35;0.80;;;;;;;2.02;70.98;101221.59;4816797;29;20015;-84
2021/04/28 04:27:01;;;;;;;2.63;0.93;;;;;;;2.55;70.07;101213.38;4845375;29;20023;-83
2021/04/28 04:29:26;;;;;;;3.92;0.80;;;;;;;3.13;68.00;101209.94;4833145;29;20038;-80
2021/04/28 04:31:52;;;;;;;3.00;0.70;;;;;;;3.60;66.75;101200.19;4826437;29;20137;-82
2021/04/28 04:34:17;;;;;;;5.30;0.93;;;;;;;4.14;64.99;101203.09;4818418;29;20039;-81
2021/04/28 04:36:43;;;;;;;3.92;0.90;;;;;;;4.99;62.60;101223.19;4834427;29;20059;-81
2021/04/28 04:39:08;;;;;;;3.35;1.02;;;;;;;5.49;60.90;101209.25;4817130;29;20360;-81
2021/04/28 04:41:34;;;;;;;2.10;0.75;;;;;;;5.96;60.07;101222.28;4833058;29;20042;-82
2021/04/28 04:44:00;;;;;;;2.13;0.80;;;;;;;6.40;59.00;101224.81;4834803;29;20044;-81
2021/04/28 04:46:25;;;;;;;3.35;0.90;;;;;;;6.29;58.52;101152.91;4836854;29;20045;-83
2021/04/28 04:48:52;;;;;;;1.33;0.80;;;;;;;6.77;57.48;101221.72;4831801;29;20091;-83
2021/04/28 04:51:18;;;;;;;1.88;0.82;;;;;;;6.75;57.92;101217.53;4817242;29;20121;-81
2021/04/28 04:53:44;;;;;;;2.47;0.90;;;;;;;7.17;57.21;101221.94;4824493;29;20034;-82
2021/04/28 04:56:10;;;;;;;2.05;0.60;;;;;;;7.35;56.13;101193.19;4816281;29;20041;-84
2021/04/28 04:58:35;;;;;;;2.55;0.80;;;;;;;7.72;55.49;101216.72;4825661;29;20015;-84
2021/04/28 05:01:01;;;;;;;1.30;0.60;;;;;;;7.88;54.41;101201.59;4845043;29;20046;-84
2021/04/28 05:03:28;;;;;;;3.70;1.02;;;;;;;8.25;54.19;101217.09;4846576;29;20026;-84
2021/04/28 05:05:54;;;;;;;3.97;0.98;;;;;;;8.21;53.90;101211.25;4825649;29;20093;-84
2021/04/28 05:08:20;;;;;;;3.38;0.73;;;;;;;8.14;53.99;101223.63;4833375;29;20370;-84
2021/04/28 05:10:45;;;;;;;2.05;0.80;;;;;;;8.46;53.39;101221.88;4846646;29;20144;-84
2021/04/28 05:13:12;;;;;;;2.15;0.80;;;;;;;8.46;52.59;101193.22;4823050;29;20019;-84
2021/04/28 05:15:38;;;;;;;2.10;0.90;;;;;;;8.53;53.13;101235.41;4835200;29;20018;-83
2021/04/28 05:18:04;;;;;;;2.55;1.00;;;;;;;8.32;54.04;101244.88;4831412;29;20026;-82
2021/04/28 05:20:31;;;;;;;2.25;1.10;;;;;;;6.55;57.27;101168.88;4832897;29;20745;-82
2021/04/28 05:22:57;;;;;;;2.97;0.80;;;;;;;6.00;60.03;101217.44;4860446;29;20030;-86
2021/04/28 05:25:23;;;;;;;1.58;0.80;;;;;;;5.37;60.88;101176.66;4834752;29;20080;-85
2021/04/28 05:27:50;;;;;;;3.33;1.05;;;;;;;5.49;61.80;101209.25;4835027;29;20026;-84
2021/04/28 05:30:16;;;;;;;2.00;1.00;;;;;;;5.48;61.89;101207.56;4834662;29;20022;-84
2021/04/28 05:32:43;;;;;;;3.90;1.00;;;;;;;5.61;61.89;101225.84;4849984;29;20026;-84
2021/04/28 05:35:10;;;;;;;3.28;1.05;;;;;;;5.55;62.00;101221.97;4850035;29;20025;-85
2021/04/28 05:37:35;;;;;;;2.13;0.80;;;;;;;5.59;62.31;101206.47;4819422;29;20042;-85
2021/04/28 05:40:02;;;;;;;1.30;0.80;;;;;;;5.78;61.83;101216.94;4833141;29;20049;-85
2021/04/28 05:42:28;;;;;;;2.60;1.15;;;;;;;5.79;61.54;101223.13;4834850;29;20094;-84
2021/04/28 05:44:54;;;;;;;3.10;0.82;;;;;;;5.61;61.23;101202.66;4846863;29;20011;-84
2021/04/28 05:47:20;;;;;;;1.13;0.70;;;;;;;5.68;60.55;101223.41;4849547;29;20030;-85
2021/04/28 05:49:46;;;;;;;3.00;0.70;;;;;;;5.50;61.07;101229.63;4854925;29;20050;-84
2021/04/28 05:52:11;;;;;;;2.22;0.82;;;;;;;5.51;60.81;101225.13;4819116;29;20044;-84
2021/04/28 05:54:37;;;;;;;3.55;0.93;;;;;;;5.34;60.98;101192.97;4834321;29;20067;-84
2021/04/28 05:57:02;;;;;;;2.25;0.77;;;;;;;5.11;60.52;101123.28;4849977;29;20030;-84
2021/04/28 05:59:28;;;;;;;1.92;1.00;;;;;;;5.82;60.10;101225.47;4838940;29;20084;-85
2021/04/28 06:01:53;;;;;;;1.55;0.73;;;;;;;5.70;60.26;101205.41;4832173;29;20019;-83
2021/04/28 06:04:20;;;;;;;3.58;0.82;;;;;;;5.87;59.24;101229.38;4842259;29;20038;-84
2021/04/28 06:06:45;;;;;;;3.25;0.98;;;;;;;5.78;59.99;101206.28;4834726;29;20022;-84
2021/04/28 06:09:13;;;;;;;2.85;1.10;;;;;;;5.88;59.38;101203.50;4832268;29;20002;-83
2021/04/28 06:11:38;;;;;;;2.35;0.90;;;;;;;6.02;58.87;101188.72;4827217;29;20039;-84
2021/04/28 06:14:04;;;;;;;3.08;0.73;;;;;;;6.33;58.61;101187.19;4819051;29;20041;-84
2021/04/28 06:16:29;;;;;;;2.30;0.80;;;;;;;6.50;58.08;101201.44;4850023;29;20065;-84
2021/04/28 06:18:55;;;;;;;1.80;0.70;;;;;;;6.71;57.19;101194.81;4833844;29;20072;-83
2021/04/28 06:21:21;;;;;;;2.50;0.90;;;;;;;7.09;57.22;101212.09;4816933;29;20095;-84
2021/04/28 06:23:47;;;;;;;6.43;1.00;;;;;;;7.06;56.72;101215.09;4816154;29;20031;-84
2021/04/28 06:26:12;;;;;;;3.28;0.90;;;;;;;7.06;56.85;101210.56;4829493;29;20019;-83
2021/04/28 06:28:38;;;;;;;3.45;0.90;;;;;;;7.35;55.85;101211.94;4834131;29;20018;-84
2021/04/28 06:31:04;;;;;;;2.42;0.98;;;;;;;7.30;55.83;101214.25;4833695;29;20022;-82
2021/04/28 06:33:29;;;;;;;3.58;0.82;;;;;;;6.92;56.04;101187.16;4826528;29;20046;-85
2021/04/28 06:35:55;;;;;;;4.45;0.90;;;;;;;6.19;55.57;101066.72;5061411;24;20042;-84
2021/04/28 06:38:21;;;;;;;3.38;1.05;;;;;;;5.46;55.12;100942.66;4850733;29;20026;-84
2021/04/28 06:40:47;;;;;;;2.33;1.13;;;;;;;5.95;55.67;101006.91;4867043;29;20069;-83
2021/04/28 06:43:13;;;;;;;4.40;1.10;;;;;;;5.80;55.55;100982.66;4849425;29;20040;-83
2021/04/28 06:45:38;;;;;;;4.85;1.00;;;;;;;5.46;55.29;100910.63;4833328;29;20110;-83
2021/04/28 06:48:08;;;;;;;3.63;1.20;;;;;;;5.72;55.07;100963.94;4849508;29;20049;-84
2021/04/28 06:50:35;;;;;;;6.28;1.20;;;;;;;6.58;54.34;101069.59;4839435;29;20020;-83
2021/04/28 06:53:01;;;;;;;2.15;0.93;;;;;;;5.94;54.27;100930.47;4818699;29;20015;-83
2021/04/28 06:55:27;;;;;;;4.70;1.10;;;;;;;6.80;53.81;101030.69;4853617;29;20026;-84
2021/04/28 06:57:56;;;;;;;3.15;1.15;;;;;;;6.66;52.88;100999.28;4865299;29;20026;-84
2021/04/28 07:00:26;;;;;;;6.43;1.30;;;;;;;6.76;52.37;101005.28;4867698;29;20060;-83
2021/04/28 07:02:53;;;;;;;2.65;1.00;;;;;;;6.18;52.46;100926.94;4851403;29;20018;-83
2021/04/28 07:05:20;;;;;;;4.68;1.00;;;;;;;6.35;52.45;100911.72;4866170;29;20112;-83
2021/04/28 07:07:46;;;;;;;5.15;1.60;;;;;;;7.06;52.04;101055.38;4851679;29;20010;-84
2021/04/28 07:10:12;;;;;;;4.68;0.90;;;;;;;6.35;51.75;100907.22;4855924;29;20033;-82
2021/04/28 07:12:39;;;;;;;1.25;0.73;;;;;;;7.30;51.72;101046.44;4861978;29;20012;-82
2021/04/28 07:15:06;;;;;;;2.80;1.10;;;;;;;6.83;50.97;100934.88;4856532;29;20033;-84
2021/04/28 07:17:34;;;;;;;3.33;0.90;;;;;;;7.57;50.66;101028.28;4850668;29;20010;-85
2021/04/28 07:20:00;;;;;;;1.70;0.90;;;;;;;8.03;50.19;101073.13;4866889;29;20093;-83
2021/04/28 07:22:26;;;;;;;4.35;1.02;;;;;;;8.41;50.17;101082.09;4867090;29;20025;-85
2021/04/28 07:24:53;;;;;;;3.80;0.90;;;;;;;7.85;49.13;101012.59;4834974;29;20018;-83
2021/04/28 07:27:20;;;;;;;3.30;1.13;;;;;;;7.97;49.20;101043.31;4832510;29;20030;-82
2021/04/28 07:29:45;;;;;;;3.03;0.88;;;;;;;8.06;49.49;101078.97;4848808;29;20025;-82
2021/04/28 07:32:11;;;;;;;2.92;0.80;;;;;;;8.81;48.82;101191.00;4832612;29;20034;-83
2021/04/28 07:34:37;;;;;;;4.10;0.90;;;;;;;7.71;48.83;100997.25;4848286;29;20097;-82
2021/04/28 07:37:04;;;;;;;4.55;1.00;;;;;;;7.50;48.21;100961.22;4848209;29;20027;-83
2021/04/28 07:39:30;;;;;;;1.98;0.77;;;;;;;7.81;48.43;100994.34;4849653;29;20147;-84
2021/04/28 07:41:56;;;;;;;2.05;0.80;;;;;;;7.43;48.66;100933.47;4850570;29;20018;-84
2021/04/28 07:44:24;;;;;;;1.88;0.85;;;;;;;7.90;48.45;101017.41;4866361;29;20051;-83
2021/04/28 07:46:50;;;;;;;3.50;0.88;;;;;;;8.73;48.56;101144.59;4847194;29;20026;-83
2021/04/28 07:49:16;;;;;;;3.03;0.88;;;;;;;8.01;48.32;101081.31;4866628;29;20021;-82
2021/04/28 07:51:43;;;;;;;7.05;1.10;;;;;;;6.80;48.15;100921.00;4848315;29;20076;-83
2021/04/28 07:54:09;;;;;;;3.00;0.70;;;;;;;6.95;47.94;100978.13;4848152;29;20024;-83
2021/04/28 07:56:34;;;;;;;1.50;0.88;;;;;;;7.66;49.75;101098.72;4865701;29;20014;-83
2021/04/28 07:59:00;;;;;;;2.63;0.93;;;;;;;7.10;49.64;101007.72;4864203;29;20018;-83
2021/04/28 08:01:26;;;;;;;6.13;0.95;;;;;;;6.96;49.68;100995.88;4848892;29;20085;-83
2021/04/28 08:03:52;;;;;;;3.45;0.80;;;;;;;6.73;49.45;100968.19;4864948;29;20068;-82
2021/04/28 08:06:19;;;;;;;3.13;0.70;;;;;;;7.31;50.17;101076.72;4864409;29;20021;-84
2021/04/28 08:08:47;;;;;;;2.50;0.98;;;;;;;6.91;50.55;101022.28;4865799;29;20030;-83
2021/04/28 08:11:12;;;;;;;1.85;0.80;;;;;;;8.11;50.41;101183.81;4847549;29;20056;-83
2021/04/28 08:13:38;;;;;;;3.40;1.00;;;;;;;6.49;50.59;100951.16;4850233;29;20081;-84
2021/04/28 08:16:04;;;;;;;3.33;1.00;;;;;;;6.44;51.79;100933.97;4865782;29;20041;-84
2021/04/28 08:18:30;;;;;;;2.33;0.82;;;;;;;6.66;51.75;100983.22;4866184;29;20049;-84
2021/04/28 08:20:55;;;;;;;2.38;0.85;;;;;;;6.50;51.70;100962.69;4853203;29;20086;-82
2021/04/28 08:23:25;;;;;;;1.70;0.70;;;;;;;6.44;51.47;100969.53;4863417;29;20011;-82
2021/04/28 08:25:52;;;;;;;1.20;0.70;;;;;;;6.16;51.76;100906.75;4866008;29;20018;-85
2021/04/28 08:28:17;;;;;;;1.60;0.70;;;;;;;6.43;50.15;100925.09;4855573;29;20022;-81
2021/04/28 08:30:43;;;;;;;2.50;0.80;;;;;;;6.87;51.65;101004.91;4847890;29;20029;-83
2021/04/28 08:33:09;;;;;;;2.75;0.95;;;;;;;6.74;52.15;101004.59;4856893;29;20038;-83
2021/04/28 08:35:37;;;;;;;1.35;0.80;;;;;;;8.15;52.55;101195.00;4862810;29;20083;-83
2021/04/28 08:38:09;;;;;;;3.60;1.10;;;;;;;6.68;51.83;100909.00;4847043;29;20018;-83
2021/04/28 08:40:35;;;;;;;2.90;1.10;;;;;;;7.45;51.65;100984.16;4850112;29;20046;-84
2021/04/28 08:43:02;;;;;;;3.40;1.20;;;;;;;7.17;50.36;100922.22;4865718;29;20130;-84
2021/04/28 08:45:28;;;;;;;2.92;0.75;;;;;;;7.84;50.29;100988.63;4850404;29;20026;-84
2021/04/28 08:47:54;;;;;;;4.55;1.20;;;;;;;7.76;50.75;100935.97;4866040;29;20074;-84
2021/04/28 08:50:21;;;;;;;2.55;1.20;;;;;;;8.37;50.14;101014.56;4850391;29;20026;-84
2021/04/28 08:52:50;;;;;;;3.65;1.17;;;;;;;8.88;49.90;101078.41;4862240;29;20169;-84
2021/04/28 08:55:16;;;;;;;4.50;1.20;;;;;;;9.22;49.85;101107.44;4845778;29;20010;-86
2021/04/28 08:57:43;;;;;;;6.20;1.38;;;;;;;8.27;49.53;100912.09;4864493;29;20053;-84
2021/04/28 09:00:12;;;;;;;4.72;1.30;;;;;;;8.93;48.76;100992.81;4851854;29;20038;-85
2021/04/28 09:03:00;;;;;;;5.30;1.27;;;;;;;8.75;48.02;100944.03;4849531;29;20061;-84
2021/04/28 09:05:27;;;;;;;2.60;1.20;;;;;;;9.20;47.96;101028.91;4850321;29;20014;-85
2021/04/28 09:07:54;;;;;;;7.30;1.20;;;;;;;8.37;47.33;100926.09;4865995;29;20037;-83
2021/04/28 09:10:22;;;;;;;3.58;1.00;;;;;;;9.85;48.21;101205.53;4850454;29;20053;-84
2021/04/28 09:13:06;;;;;;;9.07;1.23;;;;;;;8.11;48.61;100949.75;4848854;29;20094;-83
2021/04/28 09:15:41;;;;;;;2.05;0.80;;;;;;;8.17;49.55;100954.41;4865488;29;20010;-84
2021/04/28 09:18:09;;;;;;;2.97;0.90;;;;;;;7.43;49.79;100847.81;4865402;29;20041;-87
2021/04/28 09:23:20;;;;;;;3.13;1.40;;;;;;;7.99;49.95;100914.53;5750067;24;20018;-83
2021/04/28 09:25:54;;;;;;;5.13;1.33;;;;;;;8.21;49.59;100905.66;4851601;29;20071;-83
2021/04/28 09:39:02;;;;;;;1.70;1.25;;;;;;;10.04;49.81;101174.56;4983386;24;20050;-85
2021/04/28 09:44:19;;;;;;;4.47;1.10;;;;;;;8.90;48.11;100985.94;4879760;24;20055;-85
2021/04/28 09:46:58;;;;;;;3.17;1.10;;;;;;;10.34;48.01;101177.25;4831473;29;20019;-84
2021/04/28 09:54:35;;;;;;;2.65;0.90;;;;;;;9.01;47.10;100884.56;5252986;24;19934;-83
2021/04/28 09:57:02;;;;;;;4.35;1.10;;;;;;;9.48;47.18;100955.78;4838030;29;20045;-85
2021/04/28 09:59:41;;;;;;;2.30;1.20;;;;;;;9.48;47.12;100924.38;4845708;29;20051;-85
2021/04/28 10:02:13;;;;;;;5.03;1.10;;;;;;;9.33;46.75;100889.47;4851824;29;20071;-85
2021/04/28 10:04:39;;;;;;;5.18;1.00;;;;;;;9.84;46.96;100972.72;4864332;29;20016;-85
2021/04/28 10:17:28;;;;;;;1.88;0.82;;;;;;;10.63;46.11;101057.09;5434882;24;19925;-84
2021/04/28 10:25:08;;;;;;;3.17;1.00;;;;;;;10.50;45.57;101006.69;5548104;24;20050;-84
2021/04/28 10:58:40;;;;;;;5.38;0.80;;;;;;;9.88;44.32;100943.59;5351259;24;19912;-86
2021/04/28 11:01:05;;;;;;;1.95;0.70;;;;;;;11.05;45.03;101151.28;5302254;24;20069;-85
2021/04/28 11:03:55;;;;;;;1.85;0.77;;;;;;;10.21;45.01;100992.31;4837984;29;20058;-85
2021/04/28 11:06:21;;;;;;;2.92;0.80;;;;;;;10.48;44.40;101012.25;4855919;29;20022;-84
2021/04/28 12:05:41;;;;;;;2.38;0.90;;;;;;;8.82;56.14;100966.44;5501977;24;20042;-83
2021/04/28 12:18:33;;;;;;;2.25;0.80;;;;;;;7.70;57.89;100857.13;5626285;24;20054;-84
2021/04/28 12:28:51;;;;;;;1.55;0.80;;;;;;;8.97;56.88;101101.47;5586563;24;20055;-83
2021/04/28 12:31:17;;;;;;;0.80;0.60;;;;;;;7.67;57.68;100883.44;4830753;29;20034;-85
2021/04/28 12:34:15;;;;;;;3.00;0.77;;;;;;;7.87;58.01;100924.81;4841226;29;20021;-84
2021/04/28 12:41:51;;;;;;;3.05;0.85;;;;;;;9.12;58.32;101123.81;5499106;24;20038;-77
2021/04/28 12:44:17;;;;;;;3.42;0.80;;;;;;;8.30;58.10;100997.53;4807397;29;20161;-85
2021/04/28 12:46:45;;;;;;;2.22;0.75;;;;;;;7.83;58.02;100915.47;4830873;29;20026;-85
2021/04/28 12:51:51;;;;;;;6.22;0.70;;;;;;;7.44;56.84;100853.97;5194589;24;20092;-85
2021/04/28 12:54:34;;;;;;;3.13;0.90;;;;;;;8.26;57.13;100979.31;4834462;29;20030;-83
2021/04/28 12:57:16;;;;;;;1.58;0.70;;;;;;;7.61;57.50;100876.94;4829065;29;20056;-83
2021/04/28 12:59:44;;;;;;;3.65;0.77;;;;;;;8.60;57.35;101041.41;4834443;29;20102;-83
2021/04/28 13:02:18;;;;;;;2.47;0.70;;;;;;;9.24;56.89;101126.91;4841272;29;20034;-83
2021/04/28 13:04:50;;;;;;;1.42;0.88;;;;;;;8.12;57.51;100954.13;4865634;29;20013;-84
2021/04/28 13:07:25;;;;;;;1.75;0.70;;;;;;;7.44;56.74;100840.59;4846247;29;20030;-83
2021/04/28 13:09:51;;;;;;;1.75;0.80;;;;;;;7.43;56.04;100841.63;4849579;29;20017;-84
2021/04/28 13:12:41;;;;;;;4.15;0.80;;;;;;;7.50;56.85;100840.72;4838835;29;20019;-84
2021/04/28 13:29:31;;;;;;;1.53;0.70;;;;;;;9.37;55.79;101107.44;5851963;24;20025;-84
2021/04/28 13:31:57;;;;;;;1.77;0.70;;;;;;;7.56;56.62;100833.00;4812627;29;20027;-84
2021/04/28 13:34:29;;;;;;;0.90;0.60;;;;;;;7.85;57.26;100910.78;4814291;29;20019;-84
2021/04/28 13:36:57;;;;;;;3.05;0.85;;;;;;;7.91;57.80;100954.78;4808333;29;20007;-83
2021/04/28 13:39:30;;;;;;;1.30;0.80;;;;;;;8.79;58.64;101111.69;4814001;29;20023;-84
2021/04/28 13:41:57;;;;;;;3.65;0.80;;;;;;;8.32;59.18;101049.13;4800755;29;20094;-84
2021/04/28 13:44:27;;;;;;;1.95;0.68;;;;;;;8.63;60.39;101118.00;5652958;24;20066;-83
2021/04/28 13:46:55;;;;;;;4.80;0.90;;;;;;;7.29;59.56;100904.78;4829147;29;20062;-83
2021/04/28 13:49:21;;;;;;;3.83;1.02;;;;;;;7.41;60.30;100919.41;4830161;29;20021;-84
2021/04/28 13:54:23;;;;;;;1.98;1.08;;;;;;;6.87;61.06;100825.69;5326074;24;20071;-87
2021/04/28 13:56:52;;;;;;;1.73;0.77;;;;;;;6.93;60.73;100829.53;4810684;29;20091;-84
2021/04/28 14:09:39;;;;;;;2.80;0.80;;;;;;;7.64;59.37;100891.84;4856609;24;20296;-83
2021/04/28 14:22:25;;;;;;;2.55;0.75;;;;;;;8.28;57.33;100937.06;5222600;24;20049;-83
2021/04/28 14:32:37;;;;;;;1.88;0.80;;;;;;;9.20;56.05;101082.63;5392674;24;20157;-83
2021/04/28 14:35:03;;;;;;;1.95;0.80;;;;;;;8.81;56.51;100996.97;5173925;24;20126;-84
2021/04/28 14:37:32;;;;;;;4.20;0.70;;;;;;;8.18;56.90;100922.09;4814112;29;20023;-85
2021/04/28 14:39:58;;;;;;;4.05;0.80;;;;;;;8.26;57.51;100923.03;4814576;29;20110;-84
2021/04/28 14:42:25;;;;;;;1.38;0.88;;;;;;;7.94;57.12;100871.34;4847578;29;20031;-83
2021/04/28 14:44:50;;;;;;;2.20;0.73;;;;;;;7.74;57.04;100841.53;4832153;29;20031;-85
2021/04/28 14:47:16;;;;;;;2.80;0.90;;;;;;;7.60;56.54;100826.25;4829658;29;20094;-85
2021/04/28 14:49:42;;;;;;;1.52;0.70;;;;;;;7.24;55.36;100786.69;4785951;29;20027;-82